^^
Station Historical Data
 
Daily Summary for May 24, 2017 Units:  Both    English   Metric
« Previous Day
Next Day »
Daily Weekly Monthly Yearly Custom
  Current: High: Low: Average:
Temperature: 64.2 °F /  17.9 °C 64.2 °F /  17.9 °C 49.6 °F /  9.8 °C 58.6 °F /  14.8 °C
Dew Point: 40.1 °F /  4.5 °C 40.1 °F /  4.5 °C 37.6 °F /  3.1 °C 39 °F /  3.9 °C
Humidity: 41% 63% 41% 49%
Wind Speed: 8.1mph /  13km/h 8.9mph /  14.3km/h - -30.7mph /  -49.4km/h
Wind Gust: 12.0mph /  19.3km/h 14.0mph /  22.5km/h - -
WindESE - -
Pressure: 30.36 in /  1028 hPa 30.38 in /  1028.7 hPa 30.32 in /  1026.6 hPa -
Precipitation: 0.00 in /  0 mm      
Historical Graphs
 
 
Tabular Data for May 24, 2017
Time Temperature Dew Point Pressure Wind Wind Speed Wind Gust Humidity Rainfall Rate (Hourly) solar Conditions
07:12 49.6 °F /  9.8 °C 37.6 °F /  3.1 °C 30.32in /  1026.6hPa North -999.9mph /  -1609.1km/h -999.0mph /  -1607.7km/h 63% 0.00in /  0mm meteobridge W/m2
07:21 51.3 °F /  10.7 °C 37.8 °F /  3.2 °C 30.33in /  1027hPa Calm   3.0mph /  4.8km/h 60% 0.00in /  0mm meteobridge W/m2
07:27 52.0 °F /  11.1 °C 38.1 °F /  3.4 °C 30.33in /  1027hPa SSE 0.9mph /  1.4km/h 1.0mph /  1.6km/h 59% 0.00in /  0mm meteobridge W/m2
07:33 52.2 °F /  11.2 °C 38.3 °F /  3.5 °C 30.34in /  1027.3hPa Calm   2.0mph /  3.2km/h 59% 0.00in /  0mm meteobridge W/m2
07:39 52.5 °F /  11.4 °C 38.1 °F /  3.4 °C 30.34in /  1027.3hPa Calm   1.0mph /  1.6km/h 58% 0.00in /  0mm meteobridge W/m2
07:45 53.4 °F /  11.9 °C 38.5 °F /  3.6 °C 30.35in /  1027.7hPa Calm   2.0mph /  3.2km/h 57% 0.00in /  0mm meteobridge W/m2
07:47 53.8 °F /  12.1 °C 38.8 °F /  3.8 °C 30.35in /  1027.7hPa Calm   1.0mph /  1.6km/h 57% 0.00in /  0mm meteobridge W/m2
07:54 54.7 °F /  12.6 °C 38.8 °F /  3.8 °C 30.36in /  1028hPa SSE 0.9mph /  1.4km/h 2.0mph /  3.2km/h 55% 0.00in /  0mm meteobridge W/m2
08:00 55.2 °F /  12.9 °C 38.3 °F /  3.5 °C 30.36in /  1028hPa SSE 0.9mph /  1.4km/h 5.0mph /  8km/h 53% 0.00in /  0mm meteobridge W/m2
08:06 55.8 °F /  13.2 °C 38.5 °F /  3.6 °C 30.36in /  1028hPa SSE 6.0mph /  9.7km/h 6.0mph /  9.7km/h 52% 0.00in /  0mm meteobridge W/m2
08:31 58.6 °F /  14.8 °C 39.0 °F /  3.9 °C 30.37in /  1028.3hPa SSE 2.0mph /  3.2km/h 4.0mph /  6.4km/h 48% 0.00in /  0mm meteobridge W/m2
08:37 58.8 °F /  14.9 °C 39.2 °F /  4 °C 30.37in /  1028.3hPa ESE 4.0mph /  6.4km/h 4.0mph /  6.4km/h 48% 0.00in /  0mm meteobridge W/m2
08:43 59.2 °F /  15.1 °C 39.0 °F /  3.9 °C 30.37in /  1028.3hPa Calm   9.0mph /  14.5km/h 47% 0.00in /  0mm meteobridge W/m2
09:01 60.4 °F /  15.8 °C 39.0 °F /  3.9 °C 30.38in /  1028.7hPa SE 2.9mph /  4.7km/h 4.0mph /  6.4km/h 45% 0.00in /  0mm meteobridge W/m2
09:07 61.2 °F /  16.2 °C 39.7 °F /  4.3 °C 30.38in /  1028.7hPa ESE 0.9mph /  1.4km/h 4.0mph /  6.4km/h 45% 0.00in /  0mm meteobridge W/m2
09:14 61.3 °F /  16.3 °C 39.2 °F /  4 °C 30.38in /  1028.7hPa ESE 0.9mph /  1.4km/h 5.0mph /  8km/h 44% 0.00in /  0mm meteobridge W/m2
09:20 61.0 °F /  16.1 °C 39.6 °F /  4.2 °C 30.38in /  1028.7hPa South 4.0mph /  6.4km/h 7.0mph /  11.3km/h 45% 0.00in /  0mm meteobridge W/m2
09:26 60.3 °F /  15.7 °C 38.8 °F /  3.8 °C 30.38in /  1028.7hPa South 8.9mph /  14.3km/h 14.0mph /  22.5km/h 45% 0.00in /  0mm meteobridge W/m2
09:32 60.4 °F /  15.8 °C 39.0 °F /  3.9 °C 30.38in /  1028.7hPa South 4.9mph /  7.9km/h 6.0mph /  9.7km/h 45% 0.00in /  0mm meteobridge W/m2
09:38 60.6 °F /  15.9 °C 39.2 °F /  4 °C 30.38in /  1028.7hPa SSE 2.0mph /  3.2km/h 9.0mph /  14.5km/h 45% 0.00in /  0mm meteobridge W/m2
09:44 61.5 °F /  16.4 °C 39.4 °F /  4.1 °C 30.38in /  1028.7hPa Calm   7.0mph /  11.3km/h 44% 0.00in /  0mm meteobridge W/m2
09:50 61.7 °F /  16.5 °C 39.0 °F /  3.9 °C 30.38in /  1028.7hPa Calm   3.0mph /  4.8km/h 43% 0.00in /  0mm meteobridge W/m2
09:56 63.0 °F /  17.2 °C 39.6 °F /  4.2 °C 30.38in /  1028.7hPa South 4.0mph /  6.4km/h 6.0mph /  9.7km/h 42% 0.00in /  0mm meteobridge W/m2
10:02 63.1 °F /  17.3 °C 39.7 °F /  4.3 °C 30.38in /  1028.7hPa NE 6.0mph /  9.7km/h 6.0mph /  9.7km/h 42% 0.00in /  0mm meteobridge W/m2
10:08 63.1 °F /  17.3 °C 39.7 °F /  4.3 °C 30.37in /  1028.3hPa ENE 6.0mph /  9.7km/h 9.0mph /  14.5km/h 42% 0.00in /  0mm meteobridge W/m2
10:14 62.1 °F /  16.7 °C 39.4 °F /  4.1 °C 30.37in /  1028.3hPa ENE 2.9mph /  4.7km/h 10.0mph /  16.1km/h 43% 0.00in /  0mm meteobridge W/m2
10:21 62.2 °F /  16.8 °C 38.8 °F /  3.8 °C 30.37in /  1028.3hPa SE 2.9mph /  4.7km/h 9.0mph /  14.5km/h 42% 0.00in /  0mm meteobridge W/m2
10:39 62.1 °F /  16.7 °C 39.9 °F /  4.4 °C 30.36in /  1028hPa East 6.0mph /  9.7km/h 9.0mph /  14.5km/h 44% 0.00in /  0mm meteobridge W/m2
10:45 63.5 °F /  17.5 °C 39.4 °F /  4.1 °C 30.36in /  1028hPa ENE 4.9mph /  7.9km/h 7.0mph /  11.3km/h 41% 0.00in /  0mm meteobridge W/m2
10:51 64.2 °F /  17.9 °C 40.1 °F /  4.5 °C 30.36in /  1028hPa ESE 8.1mph /  13km/h 12.0mph /  19.3km/h 41% 0.00in /  0mm meteobridge W/m2
Regenstein, Windhoek, Namibia
Compliments of Weather Underground - 2.75 mb